Accueil
METAR-TAF:

METAR-TAF

Aéroports :

Base aérienne de Nörvenich

Nörvenich, Allemagne

latitude: 50-50N, longitude: 006-40E, altitude: 118 m

Observation

Le bulletin a été fait il y a 37 minutes, à 07:20 UTC
Vent 2 kt de sud-est
Température -5°C
Humidité 100%
Pression 1042 hPa
Visibilité 10 km ou plus

METAR: ETNN 210720Z 14002KT 9999 M05/M05 Q1042 BLU+BLU+ TEMPO WHT

Heure: 08:57 (07:57 UTC)

Prévision

Le bulletin a été fait il y a 2 heures et 37 minutes, à 05:20 UTC
Prévision valable du 21 à 06 UTC au 21 à 15 UTC
Vent 3 kt de direction variable
Visibilité 10 km ou plus
Ciel clair
Temporairement
du 21 à 06 UTC au 21 à 09 UTC
Vent 1 kt de direction variable
Visibilité: 5000 m
Ciel clair
brume

TAF: ETNN 210520Z 2106/2115 VRB03KT 9999 NSW SKC TEMPO 2106/2109 VRB01KT 5000 BR SKC BY ETGL

Observations et prévisions météorologiques de plus de 4000 aéroports (messages METAR et TAF).

Les stations disponibles sont représentées par des disques jaunes et rouges sur la carte.

Passer la souris dessus pour voir le nom de la station.

Cliquer dessus pour voir les observations et prévisions météorologiques.

Pour changer de carte: cliquez sur les boutons verts avec une croix noire pour zoomer, sur le bouton vert avec un tiret pour effectuer un zoom arrière, ou sur les flèches vertes pour les cartes adjacentes.


METAR-TAF: